Salt Wells, Nevada
Current Conditions -  °F | °C
As of 10:56 AM on Friday 28 Nov 2014 (Local Time) from KNFL Reporting Station
Scattered Clouds Scattered Clouds  
Wind Chill: 66°   Ceiling: Unl
Heat Index: 66°   Visibility: 10mi
Dew Point: 11°   Wind: 16mph
Humidity: 12%   Direction: 200°SSW
Pressure: 29.95"   Gusts: 24mph
Location:  39.5809°N, 118.333°W
Report Text: KNFL 281856Z 20014G21KT 10SM FEW150 SCT250 19/M12 A2995 RMK AO2 SLP115 ACSL DSNT S AND NW T01891117
Loading
Personal Weather Stations






























Interactive Weather Map New forecast layout! Learn more

10-Day Weather Forecast

Advertisements
Track Severe Weather on mobile